sensor_id;sensor_type;location;lat;lon;timestamp;temperature;humidity
23497;DHT22;11925;48.122;11.560;2023-07-31T00:00:52;19.40;99.90
23497;DHT22;11925;48.122;11.560;2023-07-31T00:03:22;19.40;99.90
23497;DHT22;11925;48.122;11.560;2023-07-31T00:05:50;19.40;99.90
23497;DHT22;11925;48.122;11.560;2023-07-31T00:08:19;19.40;99.90
23497;DHT22;11925;48.122;11.560;2023-07-31T00:10:50;19.40;99.90
23497;DHT22;11925;48.122;11.560;2023-07-31T00:13:19;19.40;99.90
23497;DHT22;11925;48.122;11.560;2023-07-31T00:15:47;19.40;99.90
23497;DHT22;11925;48.122;11.560;2023-07-31T00:18:16;19.30;99.90
23497;DHT22;11925;48.122;11.560;2023-07-31T00:20:46;19.30;99.90
23497;DHT22;11925;48.122;11.560;2023-07-31T00:23:14;19.30;99.90
23497;DHT22;11925;48.122;11.560;2023-07-31T00:25:43;19.30;99.90
23497;DHT22;11925;48.122;11.560;2023-07-31T00:28:11;19.30;99.90
23497;DHT22;11925;48.122;11.560;2023-07-31T00:30:40;19.30;99.90
23497;DHT22;11925;48.122;11.560;2023-07-31T00:33:09;19.30;99.90
23497;DHT22;11925;48.122;11.560;2023-07-31T00:35:37;19.30;99.90
23497;DHT22;11925;48.122;11.560;2023-07-31T00:38:07;19.30;99.90
23497;DHT22;11925;48.122;11.560;2023-07-31T00:40:36;19.30;99.90
23497;DHT22;11925;48.122;11.560;2023-07-31T00:43:05;19.30;99.90
23497;DHT22;11925;48.122;11.560;2023-07-31T00:45:34;19.20;99.90
23497;DHT22;11925;48.122;11.560;2023-07-31T00:48:03;19.30;99.90
23497;DHT22;11925;48.122;11.560;2023-07-31T00:50:35;19.20;99.90
23497;DHT22;11925;48.122;11.560;2023-07-31T00:53:03;19.20;99.90
23497;DHT22;11925;48.122;11.560;2023-07-31T00:55:34;19.20;99.90
23497;DHT22;11925;48.122;11.560;2023-07-31T00:58:03;19.20;99.90
23497;DHT22;11925;48.122;11.560;2023-07-31T01:00:31;19.20;99.90
23497;DHT22;11925;48.122;11.560;2023-07-31T01:03:00;19.20;99.90
23497;DHT22;11925;48.122;11.560;2023-07-31T01:05:37;19.20;99.90
23497;DHT22;11925;48.122;11.560;2023-07-31T01:08:15;19.10;99.90
23497;DHT22;11925;48.122;11.560;2023-07-31T01:10:51;19.10;99.90
23497;DHT22;11925;48.122;11.560;2023-07-31T01:13:23;19.10;99.90
23497;DHT22;11925;48.122;11.560;2023-07-31T01:15:52;19.10;99.90
23497;DHT22;11925;48.122;11.560;2023-07-31T01:18:20;19.10;99.90
23497;DHT22;11925;48.122;11.560;2023-07-31T01:20:55;19.10;99.90
23497;DHT22;11925;48.122;11.560;2023-07-31T01:23:52;19.10;99.90
23497;DHT22;11925;48.122;11.560;2023-07-31T01:26:29;19.10;99.90
23497;DHT22;11925;48.122;11.560;2023-07-31T01:29:03;19.10;99.90
23497;DHT22;11925;48.122;11.560;2023-07-31T01:31:35;19.10;99.90
23497;DHT22;11925;48.122;11.560;2023-07-31T01:34:06;19.10;99.90
23497;DHT22;11925;48.122;11.560;2023-07-31T01:36:37;19.10;99.90
23497;DHT22;11925;48.122;11.560;2023-07-31T01:39:05;19.10;99.90
23497;DHT22;11925;48.122;11.560;2023-07-31T01:41:35;19.10;99.90
23497;DHT22;11925;48.122;11.560;2023-07-31T01:44:05;19.10;99.90
23497;DHT22;11925;48.122;11.560;2023-07-31T01:46:34;19.10;99.90
23497;DHT22;11925;48.122;11.560;2023-07-31T01:49:02;19.10;99.90
23497;DHT22;11925;48.122;11.560;2023-07-31T01:51:32;19.10;99.90
23497;DHT22;11925;48.122;11.560;2023-07-31T01:54:02;19.10;99.90
23497;DHT22;11925;48.122;11.560;2023-07-31T01:56:31;19.10;99.90
23497;DHT22;11925;48.122;11.560;2023-07-31T01:59:01;19.10;99.90
23497;DHT22;11925;48.122;11.560;2023-07-31T02:01:29;19.10;99.90
23497;DHT22;11925;48.122;11.560;2023-07-31T02:03:58;19.10;99.90
23497;DHT22;11925;48.122;11.560;2023-07-31T02:06:27;19.10;99.90
23497;DHT22;11925;48.122;11.560;2023-07-31T02:08:55;19.10;99.90
23497;DHT22;11925;48.122;11.560;2023-07-31T02:11:24;19.10;99.90
23497;DHT22;11925;48.122;11.560;2023-07-31T02:13:53;19.10;99.90
23497;DHT22;11925;48.122;11.560;2023-07-31T02:16:22;19.10;99.90
23497;DHT22;11925;48.122;11.560;2023-07-31T02:18:51;19.10;99.90
23497;DHT22;11925;48.122;11.560;2023-07-31T02:21:20;19.10;99.90
23497;DHT22;11925;48.122;11.560;2023-07-31T02:23:47;19.10;99.90
23497;DHT22;11925;48.122;11.560;2023-07-31T02:26:16;19.10;99.90
23497;DHT22;11925;48.122;11.560;2023-07-31T02:28:44;19.10;99.90
23497;DHT22;11925;48.122;11.560;2023-07-31T02:31:13;19.10;99.90
23497;DHT22;11925;48.122;11.560;2023-07-31T02:33:43;19.10;99.90
23497;DHT22;11925;48.122;11.560;2023-07-31T02:36:11;19.10;99.90
23497;DHT22;11925;48.122;11.560;2023-07-31T02:38:40;19.10;99.90
23497;DHT22;11925;48.122;11.560;2023-07-31T02:41:08;19.10;99.90
23497;DHT22;11925;48.122;11.560;2023-07-31T02:43:37;19.10;99.90
23497;DHT22;11925;48.122;11.560;2023-07-31T02:46:05;19.10;99.90
23497;DHT22;11925;48.122;11.560;2023-07-31T02:48:34;19.10;99.90
23497;DHT22;11925;48.122;11.560;2023-07-31T02:51:04;19.10;99.90
23497;DHT22;11925;48.122;11.560;2023-07-31T02:53:33;19.10;99.90
23497;DHT22;11925;48.122;11.560;2023-07-31T02:56:01;19.10;99.90
23497;DHT22;11925;48.122;11.560;2023-07-31T02:58:30;19.10;99.90
23497;DHT22;11925;48.122;11.560;2023-07-31T03:00:59;19.10;99.90
23497;DHT22;11925;48.122;11.560;2023-07-31T03:03:27;19.10;99.90
23497;DHT22;11925;48.122;11.560;2023-07-31T03:05:56;19.10;99.90
23497;DHT22;11925;48.122;11.560;2023-07-31T03:08:27;19.10;99.90
23497;DHT22;11925;48.122;11.560;2023-07-31T03:10:57;19.10;99.90
23497;DHT22;11925;48.122;11.560;2023-07-31T03:13:25;19.00;99.90
23497;DHT22;11925;48.122;11.560;2023-07-31T03:15:53;19.00;99.90
23497;DHT22;11925;48.122;11.560;2023-07-31T03:18:22;19.00;99.90
23497;DHT22;11925;48.122;11.560;2023-07-31T03:20:51;19.00;99.90
23497;DHT22;11925;48.122;11.560;2023-07-31T03:23:20;19.00;99.90
23497;DHT22;11925;48.122;11.560;2023-07-31T03:25:58;19.00;99.90
23497;DHT22;11925;48.122;11.560;2023-07-31T03:28:30;19.00;99.90
23497;DHT22;11925;48.122;11.560;2023-07-31T03:30:59;19.00;99.90
23497;DHT22;11925;48.122;11.560;2023-07-31T03:33:27;19.00;99.90
23497;DHT22;11925;48.122;11.560;2023-07-31T03:35:56;19.00;99.90
23497;DHT22;11925;48.122;11.560;2023-07-31T03:38:25;19.00;99.90
23497;DHT22;11925;48.122;11.560;2023-07-31T03:40:53;19.00;99.90
23497;DHT22;11925;48.122;11.560;2023-07-31T03:43:23;19.00;99.90
23497;DHT22;11925;48.122;11.560;2023-07-31T03:45:52;19.00;99.90
23497;DHT22;11925;48.122;11.560;2023-07-31T03:48:24;18.90;99.90
23497;DHT22;11925;48.122;11.560;2023-07-31T03:50:54;18.90;99.90
23497;DHT22;11925;48.122;11.560;2023-07-31T03:53:23;18.90;99.90
23497;DHT22;11925;48.122;11.560;2023-07-31T03:55:51;18.90;99.90
23497;DHT22;11925;48.122;11.560;2023-07-31T03:58:20;18.90;99.90
23497;DHT22;11925;48.122;11.560;2023-07-31T04:00:50;18.90;99.90
23497;DHT22;11925;48.122;11.560;2023-07-31T04:03:18;18.90;99.90
23497;DHT22;11925;48.122;11.560;2023-07-31T04:05:47;18.90;99.90
23497;DHT22;11925;48.122;11.560;2023-07-31T04:08:15;18.90;99.90
23497;DHT22;11925;48.122;11.560;2023-07-31T04:10:44;18.90;99.90
23497;DHT22;11925;48.122;11.560;2023-07-31T04:13:13;18.90;99.90
23497;DHT22;11925;48.122;11.560;2023-07-31T04:15:41;18.90;99.90
23497;DHT22;11925;48.122;11.560;2023-07-31T04:18:11;18.80;99.90
23497;DHT22;11925;48.122;11.560;2023-07-31T04:20:40;18.80;99.90
23497;DHT22;11925;48.122;11.560;2023-07-31T04:23:08;18.90;99.90
23497;DHT22;11925;48.122;11.560;2023-07-31T04:25:37;18.90;99.90
23497;DHT22;11925;48.122;11.560;2023-07-31T04:28:05;18.80;99.90
23497;DHT22;11925;48.122;11.560;2023-07-31T04:30:34;18.90;99.90
23497;DHT22;11925;48.122;11.560;2023-07-31T04:33:03;18.90;99.90
23497;DHT22;11925;48.122;11.560;2023-07-31T04:35:33;18.90;99.90
23497;DHT22;11925;48.122;11.560;2023-07-31T04:38:02;18.90;99.90
23497;DHT22;11925;48.122;11.560;2023-07-31T04:40:30;18.90;99.90
23497;DHT22;11925;48.122;11.560;2023-07-31T04:42:59;18.90;99.90
23497;DHT22;11925;48.122;11.560;2023-07-31T04:45:28;18.90;99.90
23497;DHT22;11925;48.122;11.560;2023-07-31T04:47:57;18.90;99.90
23497;DHT22;11925;48.122;11.560;2023-07-31T04:50:25;18.90;99.90
23497;DHT22;11925;48.122;11.560;2023-07-31T04:52:55;18.90;99.90
23497;DHT22;11925;48.122;11.560;2023-07-31T04:55:24;19.00;99.90
23497;DHT22;11925;48.122;11.560;2023-07-31T04:57:52;19.00;99.90
23497;DHT22;11925;48.122;11.560;2023-07-31T05:00:21;18.90;99.90
23497;DHT22;11925;48.122;11.560;2023-07-31T05:02:49;19.00;99.90
23497;DHT22;11925;48.122;11.560;2023-07-31T05:05:18;19.00;99.90
23497;DHT22;11925;48.122;11.560;2023-07-31T05:07:46;19.00;99.90
23497;DHT22;11925;48.122;11.560;2023-07-31T05:10:16;19.00;99.90
23497;DHT22;11925;48.122;11.560;2023-07-31T05:12:45;19.00;99.90
23497;DHT22;11925;48.122;11.560;2023-07-31T05:15:14;18.90;99.90
23497;DHT22;11925;48.122;11.560;2023-07-31T05:17:42;18.90;99.90
23497;DHT22;11925;48.122;11.560;2023-07-31T05:20:11;18.90;99.90
23497;DHT22;11925;48.122;11.560;2023-07-31T05:22:40;18.90;99.90
23497;DHT22;11925;48.122;11.560;2023-07-31T05:25:09;18.90;99.90
23497;DHT22;11925;48.122;11.560;2023-07-31T05:27:39;18.90;99.90
23497;DHT22;11925;48.122;11.560;2023-07-31T05:30:08;18.90;99.90
23497;DHT22;11925;48.122;11.560;2023-07-31T05:32:37;18.90;99.90
23497;DHT22;11925;48.122;11.560;2023-07-31T05:35:06;18.90;99.90
23497;DHT22;11925;48.122;11.560;2023-07-31T05:37:34;18.90;99.90
23497;DHT22;11925;48.122;11.560;2023-07-31T05:40:04;19.00;99.90
23497;DHT22;11925;48.122;11.560;2023-07-31T05:42:33;19.00;99.90
23497;DHT22;11925;48.122;11.560;2023-07-31T05:45:05;19.00;99.90
23497;DHT22;11925;48.122;11.560;2023-07-31T05:47:34;19.00;99.90
23497;DHT22;11925;48.122;11.560;2023-07-31T05:50:02;19.00;99.90
23497;DHT22;11925;48.122;11.560;2023-07-31T05:52:31;19.00;99.90
23497;DHT22;11925;48.122;11.560;2023-07-31T05:55:00;19.00;99.90
23497;DHT22;11925;48.122;11.560;2023-07-31T05:57:30;19.00;99.90
23497;DHT22;11925;48.122;11.560;2023-07-31T05:59:58;19.00;99.90
23497;DHT22;11925;48.122;11.560;2023-07-31T06:02:28;19.00;99.90
23497;DHT22;11925;48.122;11.560;2023-07-31T06:05:00;19.00;99.90
23497;DHT22;11925;48.122;11.560;2023-07-31T06:07:29;19.00;99.90
23497;DHT22;11925;48.122;11.560;2023-07-31T06:09:57;19.00;99.90
23497;DHT22;11925;48.122;11.560;2023-07-31T06:12:32;19.00;99.90
23497;DHT22;11925;48.122;11.560;2023-07-31T06:15:01;19.00;99.90
23497;DHT22;11925;48.122;11.560;2023-07-31T06:17:32;19.00;99.90
23497;DHT22;11925;48.122;11.560;2023-07-31T06:20:01;19.00;99.90
23497;DHT22;11925;48.122;11.560;2023-07-31T06:22:32;19.00;99.90
23497;DHT22;11925;48.122;11.560;2023-07-31T06:25:01;19.00;99.90
23497;DHT22;11925;48.122;11.560;2023-07-31T06:27:30;19.00;99.90
23497;DHT22;11925;48.122;11.560;2023-07-31T06:30:01;19.00;99.90
23497;DHT22;11925;48.122;11.560;2023-07-31T06:32:32;19.00;99.90
23497;DHT22;11925;48.122;11.560;2023-07-31T06:35:00;19.00;99.90
23497;DHT22;11925;48.122;11.560;2023-07-31T06:37:29;19.00;99.90
23497;DHT22;11925;48.122;11.560;2023-07-31T06:39:57;19.00;99.90
23497;DHT22;11925;48.122;11.560;2023-07-31T06:42:26;19.00;99.90
23497;DHT22;11925;48.122;11.560;2023-07-31T06:44:55;19.00;99.90
23497;DHT22;11925;48.122;11.560;2023-07-31T06:47:23;19.00;99.90
23497;DHT22;11925;48.122;11.560;2023-07-31T06:49:53;19.00;99.90
23497;DHT22;11925;48.122;11.560;2023-07-31T06:52:21;19.00;99.90
23497;DHT22;11925;48.122;11.560;2023-07-31T06:55:02;19.00;99.90
23497;DHT22;11925;48.122;11.560;2023-07-31T06:57:31;19.00;99.90
23497;DHT22;11925;48.122;11.560;2023-07-31T07:00:00;19.00;99.90
23497;DHT22;11925;48.122;11.560;2023-07-31T07:02:28;19.00;99.90
23497;DHT22;11925;48.122;11.560;2023-07-31T07:04:59;19.00;99.90
23497;DHT22;11925;48.122;11.560;2023-07-31T07:07:27;19.00;99.90
23497;DHT22;11925;48.122;11.560;2023-07-31T07:09:56;19.10;99.90
23497;DHT22;11925;48.122;11.560;2023-07-31T07:12:28;19.10;99.90
23497;DHT22;11925;48.122;11.560;2023-07-31T07:14:56;19.10;99.90
23497;DHT22;11925;48.122;11.560;2023-07-31T07:17:26;19.00;99.90
23497;DHT22;11925;48.122;11.560;2023-07-31T07:19:54;19.10;99.90
23497;DHT22;11925;48.122;11.560;2023-07-31T07:22:24;19.00;99.90
23497;DHT22;11925;48.122;11.560;2023-07-31T07:24:53;19.00;99.90
23497;DHT22;11925;48.122;11.560;2023-07-31T07:27:21;19.00;99.90
23497;DHT22;11925;48.122;11.560;2023-07-31T07:29:50;19.00;99.90
23497;DHT22;11925;48.122;11.560;2023-07-31T07:32:20;19.10;99.90
23497;DHT22;11925;48.122;11.560;2023-07-31T07:34:49;19.10;99.90
23497;DHT22;11925;48.122;11.560;2023-07-31T07:37:17;19.00;99.90
23497;DHT22;11925;48.122;11.560;2023-07-31T07:39:47;19.00;99.90
23497;DHT22;11925;48.122;11.560;2023-07-31T07:42:16;19.10;99.90
23497;DHT22;11925;48.122;11.560;2023-07-31T07:44:44;19.10;99.90
23497;DHT22;11925;48.122;11.560;2023-07-31T07:47:13;19.10;99.90
23497;DHT22;11925;48.122;11.560;2023-07-31T07:49:41;19.10;99.90
23497;DHT22;11925;48.122;11.560;2023-07-31T07:52:16;19.10;99.90
23497;DHT22;11925;48.122;11.560;2023-07-31T07:54:46;19.10;99.90
23497;DHT22;11925;48.122;11.560;2023-07-31T07:57:15;19.10;99.90
23497;DHT22;11925;48.122;11.560;2023-07-31T07:59:43;19.20;99.90
23497;DHT22;11925;48.122;11.560;2023-07-31T08:02:11;19.20;99.90
23497;DHT22;11925;48.122;11.560;2023-07-31T08:04:40;19.20;99.90
23497;DHT22;11925;48.122;11.560;2023-07-31T08:07:10;19.20;99.90
23497;DHT22;11925;48.122;11.560;2023-07-31T08:09:39;19.20;99.90
23497;DHT22;11925;48.122;11.560;2023-07-31T08:12:09;19.20;99.90
23497;DHT22;11925;48.122;11.560;2023-07-31T08:14:38;19.20;99.90
23497;DHT22;11925;48.122;11.560;2023-07-31T08:17:06;19.20;99.90
23497;DHT22;11925;48.122;11.560;2023-07-31T08:19:34;19.20;99.90
23497;DHT22;11925;48.122;11.560;2023-07-31T08:22:03;19.20;99.90
23497;DHT22;11925;48.122;11.560;2023-07-31T08:24:32;19.30;99.90
23497;DHT22;11925;48.122;11.560;2023-07-31T08:27:00;19.20;99.90
23497;DHT22;11925;48.122;11.560;2023-07-31T08:29:30;19.30;99.90
23497;DHT22;11925;48.122;11.560;2023-07-31T08:31:59;19.20;99.90
23497;DHT22;11925;48.122;11.560;2023-07-31T08:34:27;19.30;99.90
23497;DHT22;11925;48.122;11.560;2023-07-31T08:36:55;19.30;99.90
23497;DHT22;11925;48.122;11.560;2023-07-31T08:39:24;19.20;99.90
23497;DHT22;11925;48.122;11.560;2023-07-31T08:41:58;19.20;99.90
23497;DHT22;11925;48.122;11.560;2023-07-31T08:44:26;19.20;99.90
23497;DHT22;11925;48.122;11.560;2023-07-31T08:46:56;19.20;99.90
23497;DHT22;11925;48.122;11.560;2023-07-31T08:49:26;19.20;99.90
23497;DHT22;11925;48.122;11.560;2023-07-31T08:51:54;19.30;99.90
23497;DHT22;11925;48.122;11.560;2023-07-31T08:56:58;19.20;99.60
23497;DHT22;11925;48.122;11.560;2023-07-31T08:59:29;19.20;99.90
23497;DHT22;11925;48.122;11.560;2023-07-31T09:02:00;19.20;99.90
23497;DHT22;11925;48.122;11.560;2023-07-31T09:04:32;19.20;99.90
23497;DHT22;11925;48.122;11.560;2023-07-31T09:07:01;19.20;99.90
23497;DHT22;11925;48.122;11.560;2023-07-31T09:09:31;19.20;99.90
23497;DHT22;11925;48.122;11.560;2023-07-31T09:12:00;19.20;99.90
23497;DHT22;11925;48.122;11.560;2023-07-31T09:14:28;19.20;99.90
23497;DHT22;11925;48.122;11.560;2023-07-31T09:16:58;19.20;99.80
23497;DHT22;11925;48.122;11.560;2023-07-31T09:19:32;19.20;99.50
23497;DHT22;11925;48.122;11.560;2023-07-31T09:22:01;19.20;99.30
23497;DHT22;11925;48.122;11.560;2023-07-31T09:24:31;19.20;99.40
23497;DHT22;11925;48.122;11.560;2023-07-31T09:27:01;19.20;99.30
23497;DHT22;11925;48.122;11.560;2023-07-31T09:29:29;19.30;99.40
23497;DHT22;11925;48.122;11.560;2023-07-31T09:31:58;19.30;99.30
23497;DHT22;11925;48.122;11.560;2023-07-31T09:34:38;19.30;99.10
23497;DHT22;11925;48.122;11.560;2023-07-31T09:37:06;19.30;98.80
23497;DHT22;11925;48.122;11.560;2023-07-31T09:39:46;19.30;99.10
23497;DHT22;11925;48.122;11.560;2023-07-31T09:42:24;19.40;99.50
23497;DHT22;11925;48.122;11.560;2023-07-31T09:44:52;19.40;99.90
23497;DHT22;11925;48.122;11.560;2023-07-31T09:47:24;19.40;99.90
23497;DHT22;11925;48.122;11.560;2023-07-31T09:49:54;19.40;99.60
23497;DHT22;11925;48.122;11.560;2023-07-31T09:52:26;19.40;99.40
23497;DHT22;11925;48.122;11.560;2023-07-31T09:54:54;19.40;99.90
23497;DHT22;11925;48.122;11.560;2023-07-31T09:57:23;19.40;99.90
23497;DHT22;11925;48.122;11.560;2023-07-31T09:59:53;19.40;99.90
23497;DHT22;11925;48.122;11.560;2023-07-31T10:02:22;19.40;99.90
23497;DHT22;11925;48.122;11.560;2023-07-31T10:04:51;19.40;99.90
23497;DHT22;11925;48.122;11.560;2023-07-31T10:07:23;19.50;99.70
23497;DHT22;11925;48.122;11.560;2023-07-31T10:09:53;19.50;99.40
23497;DHT22;11925;48.122;11.560;2023-07-31T10:12:26;19.50;99.90
23497;DHT22;11925;48.122;11.560;2023-07-31T10:14:55;19.50;99.70
23497;DHT22;11925;48.122;11.560;2023-07-31T10:17:25;19.50;99.50
23497;DHT22;11925;48.122;11.560;2023-07-31T10:19:53;19.50;99.20
23497;DHT22;11925;48.122;11.560;2023-07-31T10:22:24;19.50;99.30
23497;DHT22;11925;48.122;11.560;2023-07-31T10:24:54;19.50;99.30
23497;DHT22;11925;48.122;11.560;2023-07-31T10:27:23;19.50;99.40
23497;DHT22;11925;48.122;11.560;2023-07-31T10:29:52;19.50;99.60
23497;DHT22;11925;48.122;11.560;2023-07-31T10:32:23;19.50;99.90
23497;DHT22;11925;48.122;11.560;2023-07-31T10:34:53;19.50;99.70
23497;DHT22;11925;48.122;11.560;2023-07-31T10:37:24;19.50;98.80
23497;DHT22;11925;48.122;11.560;2023-07-31T10:39:58;19.60;97.80
23497;DHT22;11925;48.122;11.560;2023-07-31T10:42:31;19.60;97.90
23497;DHT22;11925;48.122;11.560;2023-07-31T10:45:00;19.60;98.00
23497;DHT22;11925;48.122;11.560;2023-07-31T10:47:29;19.60;99.30
23497;DHT22;11925;48.122;11.560;2023-07-31T10:50:17;19.60;98.60
23497;DHT22;11925;48.122;11.560;2023-07-31T10:52:49;19.60;97.90
23497;DHT22;11925;48.122;11.560;2023-07-31T10:55:26;19.60;97.60
23497;DHT22;11925;48.122;11.560;2023-07-31T10:57:57;19.60;97.50
23497;DHT22;11925;48.122;11.560;2023-07-31T11:00:27;19.60;97.10
23497;DHT22;11925;48.122;11.560;2023-07-31T11:03:03;19.60;96.90
23497;DHT22;11925;48.122;11.560;2023-07-31T11:05:46;19.60;97.50
23497;DHT22;11925;48.122;11.560;2023-07-31T11:08:18;19.60;96.90
23497;DHT22;11925;48.122;11.560;2023-07-31T11:10:48;19.60;96.20
23497;DHT22;11925;48.122;11.560;2023-07-31T11:13:17;19.60;96.30
23497;DHT22;11925;48.122;11.560;2023-07-31T11:15:46;19.60;96.60
23497;DHT22;11925;48.122;11.560;2023-07-31T11:18:14;19.60;97.90
23497;DHT22;11925;48.122;11.560;2023-07-31T11:20:44;19.60;99.10
23497;DHT22;11925;48.122;11.560;2023-07-31T11:23:12;19.60;98.40
23497;DHT22;11925;48.122;11.560;2023-07-31T11:25:42;19.60;98.10
23497;DHT22;11925;48.122;11.560;2023-07-31T11:28:11;19.60;99.40
23497;DHT22;11925;48.122;11.560;2023-07-31T11:30:41;19.60;99.20
23497;DHT22;11925;48.122;11.560;2023-07-31T11:33:11;19.60;99.70
23497;DHT22;11925;48.122;11.560;2023-07-31T11:35:43;19.60;99.60
23497;DHT22;11925;48.122;11.560;2023-07-31T11:38:21;19.60;98.40
23497;DHT22;11925;48.122;11.560;2023-07-31T11:40:52;19.70;98.00
23497;DHT22;11925;48.122;11.560;2023-07-31T11:43:21;19.60;98.10
23497;DHT22;11925;48.122;11.560;2023-07-31T11:45:51;19.70;97.30
23497;DHT22;11925;48.122;11.560;2023-07-31T11:48:21;19.70;97.00
23497;DHT22;11925;48.122;11.560;2023-07-31T11:50:51;19.70;97.10
23497;DHT22;11925;48.122;11.560;2023-07-31T11:53:24;19.70;96.90
23497;DHT22;11925;48.122;11.560;2023-07-31T11:55:55;19.70;98.30
23497;DHT22;11925;48.122;11.560;2023-07-31T11:58:25;19.80;97.20
23497;DHT22;11925;48.122;11.560;2023-07-31T12:00:54;19.80;97.00
23497;DHT22;11925;48.122;11.560;2023-07-31T12:03:23;19.80;97.70
23497;DHT22;11925;48.122;11.560;2023-07-31T12:05:53;19.80;98.70
23497;DHT22;11925;48.122;11.560;2023-07-31T12:08:23;19.80;98.30
23497;DHT22;11925;48.122;11.560;2023-07-31T12:10:54;19.80;98.90
23497;DHT22;11925;48.122;11.560;2023-07-31T12:13:24;19.70;98.00
23497;DHT22;11925;48.122;11.560;2023-07-31T12:15:54;19.80;96.50
23497;DHT22;11925;48.122;11.560;2023-07-31T12:18:25;19.90;96.30
23497;DHT22;11925;48.122;11.560;2023-07-31T12:20:55;19.90;98.10
23497;DHT22;11925;48.122;11.560;2023-07-31T12:23:25;19.80;97.50
23497;DHT22;11925;48.122;11.560;2023-07-31T12:26:04;19.80;96.80
23497;DHT22;11925;48.122;11.560;2023-07-31T12:28:36;19.80;99.10
23497;DHT22;11925;48.122;11.560;2023-07-31T12:31:05;19.80;96.80
23497;DHT22;11925;48.122;11.560;2023-07-31T12:33:35;19.90;96.80
23497;DHT22;11925;48.122;11.560;2023-07-31T12:36:08;19.90;96.60
23497;DHT22;11925;48.122;11.560;2023-07-31T12:38:37;19.90;96.50
23497;DHT22;11925;48.122;11.560;2023-07-31T12:41:07;19.90;96.70
23497;DHT22;11925;48.122;11.560;2023-07-31T12:46:05;19.90;95.70
23497;DHT22;11925;48.122;11.560;2023-07-31T12:48:35;19.90;96.30
23497;DHT22;11925;48.122;11.560;2023-07-31T12:51:03;19.90;96.70
23497;DHT22;11925;48.122;11.560;2023-07-31T12:53:33;19.90;97.20
23497;DHT22;11925;48.122;11.560;2023-07-31T12:56:02;19.90;97.30
23497;DHT22;11925;48.122;11.560;2023-07-31T12:58:44;19.90;97.50
23497;DHT22;11925;48.122;11.560;2023-07-31T13:01:14;19.80;97.90
23497;DHT22;11925;48.122;11.560;2023-07-31T13:03:43;19.80;98.50
23497;DHT22;11925;48.122;11.560;2023-07-31T13:06:12;19.80;98.40
23497;DHT22;11925;48.122;11.560;2023-07-31T13:08:40;19.80;98.10
23497;DHT22;11925;48.122;11.560;2023-07-31T13:11:09;19.90;97.00
23497;DHT22;11925;48.122;11.560;2023-07-31T13:13:37;19.90;97.60
23497;DHT22;11925;48.122;11.560;2023-07-31T13:16:07;19.90;98.20
23497;DHT22;11925;48.122;11.560;2023-07-31T13:18:35;19.80;98.80
23497;DHT22;11925;48.122;11.560;2023-07-31T13:21:03;19.80;98.40
23497;DHT22;11925;48.122;11.560;2023-07-31T13:23:32;19.90;97.90
23497;DHT22;11925;48.122;11.560;2023-07-31T13:26:00;19.90;97.60
23497;DHT22;11925;48.122;11.560;2023-07-31T13:28:28;19.90;97.50
23497;DHT22;11925;48.122;11.560;2023-07-31T13:30:57;19.90;97.50
23497;DHT22;11925;48.122;11.560;2023-07-31T13:33:27;19.90;96.40
23497;DHT22;11925;48.122;11.560;2023-07-31T13:36:05;20.00;95.40
23497;DHT22;11925;48.122;11.560;2023-07-31T13:38:33;20.00;96.20
23497;DHT22;11925;48.122;11.560;2023-07-31T13:41:02;19.90;97.20
23497;DHT22;11925;48.122;11.560;2023-07-31T13:43:30;19.90;98.20
23497;DHT22;11925;48.122;11.560;2023-07-31T13:45:59;19.90;98.50
23497;DHT22;11925;48.122;11.560;2023-07-31T13:48:35;19.80;98.70
23497;DHT22;11925;48.122;11.560;2023-07-31T13:51:03;19.80;98.50
23497;DHT22;11925;48.122;11.560;2023-07-31T13:53:32;19.80;98.60
23497;DHT22;11925;48.122;11.560;2023-07-31T13:56:01;19.90;97.60
23497;DHT22;11925;48.122;11.560;2023-07-31T13:58:29;19.90;97.70
23497;DHT22;11925;48.122;11.560;2023-07-31T14:00:58;19.90;97.70
23497;DHT22;11925;48.122;11.560;2023-07-31T14:03:26;19.90;98.00
23497;DHT22;11925;48.122;11.560;2023-07-31T14:05:56;19.90;99.00
23497;DHT22;11925;48.122;11.560;2023-07-31T14:08:25;19.90;98.30
23497;DHT22;11925;48.122;11.560;2023-07-31T14:10:53;20.00;96.70
23497;DHT22;11925;48.122;11.560;2023-07-31T14:13:21;20.00;98.90
23497;DHT22;11925;48.122;11.560;2023-07-31T14:15:50;19.90;99.00
23497;DHT22;11925;48.122;11.560;2023-07-31T14:18:18;19.90;98.50
23497;DHT22;11925;48.122;11.560;2023-07-31T14:20:47;19.90;98.90
23497;DHT22;11925;48.122;11.560;2023-07-31T14:23:16;20.00;97.50
23497;DHT22;11925;48.122;11.560;2023-07-31T14:25:46;20.00;96.70
23497;DHT22;11925;48.122;11.560;2023-07-31T14:28:15;20.00;97.40
23497;DHT22;11925;48.122;11.560;2023-07-31T14:30:43;19.90;98.80
23497;DHT22;11925;48.122;11.560;2023-07-31T14:33:11;19.90;97.60
23497;DHT22;11925;48.122;11.560;2023-07-31T14:35:40;20.00;96.70
23497;DHT22;11925;48.122;11.560;2023-07-31T14:38:09;20.00;97.70
23497;DHT22;11925;48.122;11.560;2023-07-31T14:40:38;20.00;97.20
23497;DHT22;11925;48.122;11.560;2023-07-31T14:43:07;20.00;96.80
23497;DHT22;11925;48.122;11.560;2023-07-31T14:45:35;20.00;96.70
23497;DHT22;11925;48.122;11.560;2023-07-31T14:48:04;20.10;97.20
23497;DHT22;11925;48.122;11.560;2023-07-31T14:50:32;20.00;98.40
23497;DHT22;11925;48.122;11.560;2023-07-31T14:53:01;20.00;97.70
23497;DHT22;11925;48.122;11.560;2023-07-31T14:55:29;20.00;96.50
23497;DHT22;11925;48.122;11.560;2023-07-31T14:57:59;20.10;95.90
23497;DHT22;11925;48.122;11.560;2023-07-31T15:00:27;20.10;96.90
23497;DHT22;11925;48.122;11.560;2023-07-31T15:02:55;20.10;97.40
23497;DHT22;11925;48.122;11.560;2023-07-31T15:05:24;20.00;98.40
23497;DHT22;11925;48.122;11.560;2023-07-31T15:07:53;20.00;97.00
23497;DHT22;11925;48.122;11.560;2023-07-31T15:10:21;20.00;97.90
23497;DHT22;11925;48.122;11.560;2023-07-31T15:12:50;20.00;97.20
23497;DHT22;11925;48.122;11.560;2023-07-31T15:15:19;20.10;97.40
23497;DHT22;11925;48.122;11.560;2023-07-31T15:17:48;20.00;97.40
23497;DHT22;11925;48.122;11.560;2023-07-31T15:20:16;20.00;97.70
23497;DHT22;11925;48.122;11.560;2023-07-31T15:22:45;20.00;98.10
23497;DHT22;11925;48.122;11.560;2023-07-31T15:25:13;20.00;96.80
23497;DHT22;11925;48.122;11.560;2023-07-31T15:27:42;20.10;96.50
23497;DHT22;11925;48.122;11.560;2023-07-31T15:30:10;20.10;96.80
23497;DHT22;11925;48.122;11.560;2023-07-31T15:32:40;20.10;95.60
23497;DHT22;11925;48.122;11.560;2023-07-31T15:35:08;20.10;95.40